Time;durP1;ratioP1;P1;durP2;ratioP2;P2;SDS_P1;SDS_P2;PMS_P1;PMS_P2;Temp;Humidity;BMP_temperature;BMP_pressure;BME280_temperature;BME280_humidity;BME280_pressure;Samples;Min_cycle;Max_cycle;Signal;HPM_P1;HPM_P2
2023/12/11 00:00:23;;;;;;;;;;;8.80;99.90;;;;;;5110620;28;19935;-85
2023/12/11 00:02:49;;;;;;;;;;;8.80;99.90;;;;;;5107479;28;19924;-85
2023/12/11 00:05:14;;;;;;;;;;;8.90;99.90;;;;;;5142481;27;19933;-83
2023/12/11 00:07:40;;;;;;;;;;;8.90;99.90;;;;;;5113061;28;19928;-83
2023/12/11 00:10:06;;;;;;;;;;;8.90;99.90;;;;;;5118002;27;19928;-82
2023/12/11 00:12:32;;;;;;;;;;;8.90;99.90;;;;;;5118500;28;19927;-82
2023/12/11 00:14:58;;;;;;;;;;;8.90;99.90;;;;;;5115981;28;19924;-84
2023/12/11 00:17:23;;;;;;;;;;;8.90;99.90;;;;;;5111389;28;20363;-86
2023/12/11 00:19:49;;;;;;;;;;;8.90;99.90;;;;;;5093877;28;19932;-86
2023/12/11 00:22:15;;;;;;;;;;;8.90;99.90;;;;;;5111272;28;19932;-84
2023/12/11 00:24:40;;;;;;;;;;;8.90;99.90;;;;;;5117848;28;20297;-82
2023/12/11 00:27:06;;;;;;;;;;;8.90;99.90;;;;;;5115382;28;19931;-82
2023/12/11 00:29:31;;;;;;;;;;;8.90;99.90;;;;;;5113384;28;19936;-87
2023/12/11 00:31:57;;;;;;;;;;;8.90;99.90;;;;;;5094547;28;19928;-85
2023/12/11 00:34:22;;;;;;;;;;;8.90;99.90;;;;;;5112910;27;19989;-83
2023/12/11 00:36:48;;;;;;;;;;;8.90;99.90;;;;;;5115992;27;19966;-84
2023/12/11 00:39:16;;;;;;;;;;;8.90;99.90;;;;;;5111313;27;19927;-82
2023/12/11 00:41:43;;;;;;;;;;;8.90;99.90;;;;;;5114903;27;19928;-84
2023/12/11 00:44:08;;;;;;;;;;;8.90;99.90;;;;;;5105515;27;19928;-83
2023/12/11 00:46:34;;;;;;;;;;;8.90;99.90;;;;;;5107773;27;19931;-86
2023/12/11 00:48:59;;;;;;;;;;;8.90;99.90;;;;;;5119251;27;19931;-83
2023/12/11 00:51:25;;;;;;;;;;;8.90;99.90;;;;;;5116446;27;19932;-85
2023/12/11 00:53:51;;;;;;;;;;;8.90;99.90;;;;;;5100492;27;19951;-84
2023/12/11 00:56:16;;;;;;;;;;;8.90;99.90;;;;;;5110374;27;20008;-82
2023/12/11 00:58:42;;;;;;;;;;;8.80;99.90;;;;;;5113750;27;19924;-83
2023/12/11 01:01:08;;;;;;;;;;;8.80;99.90;;;;;;5134616;27;20341;-82
2023/12/11 01:03:34;;;;;;;;;;;8.80;99.90;;;;;;5115697;27;19938;-89
2023/12/11 01:06:00;;;;;;;;;;;8.80;99.90;;;;;;5112940;27;19969;-83
2023/12/11 01:08:30;;;;;;;;;;;8.80;99.90;;;;;;5108441;27;19927;-81
2023/12/11 01:10:58;;;;;;;;;;;8.80;99.90;;;;;;5110518;27;19928;-83
2023/12/11 01:13:24;;;;;;;;;;;8.80;99.90;;;;;;5112472;27;19971;-83
2023/12/11 01:15:49;;;;;;;;;;;8.80;99.90;;;;;;5116536;27;20326;-83
2023/12/11 01:18:15;;;;;;;;;;;8.80;99.90;;;;;;5116668;27;20018;-83
2023/12/11 01:20:41;;;;;;;;;;;8.80;99.90;;;;;;5113967;27;19924;-85
2023/12/11 01:23:06;;;;;;;;;;;8.80;99.90;;;;;;5109870;27;20418;-83
2023/12/11 01:25:32;;;;;;;;;;;8.90;99.90;;;;;;5147794;27;20006;-82
2023/12/11 01:27:57;;;;;;;;;;;8.90;99.90;;;;;;5115474;28;19924;-83
2023/12/11 01:30:23;;;;;;;;;;;8.90;99.90;;;;;;5112603;28;20267;-83
2023/12/11 01:32:49;;;;;;;;;;;8.90;99.90;;;;;;5101709;28;20390;-83
2023/12/11 01:35:14;;;;;;;;;;;9.00;99.90;;;;;;5136510;27;19975;-83
2023/12/11 01:37:42;;;;;;;;;;;9.00;99.90;;;;;;5115617;27;19924;-84
2023/12/11 01:40:07;;;;;;;;;;;9.00;99.90;;;;;;5114383;28;20010;-82
2023/12/11 01:42:33;;;;;;;;;;;9.00;99.90;;;;;;5115060;28;20015;-83
2023/12/11 01:44:59;;;;;;;;;;;9.10;99.90;;;;;;5114957;28;19932;-82
2023/12/11 01:47:24;;;;;;;;;;;9.00;99.90;;;;;;5115120;28;20333;-82
2023/12/11 01:49:50;;;;;;;;;;;9.10;99.90;;;;;;5114835;28;19930;-82
2023/12/11 01:52:16;;;;;;;;;;;9.10;99.90;;;;;;5112747;28;19924;-82
2023/12/11 01:54:43;;;;;;;;;;;9.10;99.90;;;;;;5100244;28;19924;-83
2023/12/11 01:57:09;;;;;;;;;;;9.10;99.90;;;;;;5101115;28;19928;-85
2023/12/11 01:59:35;;;;;;;;;;;9.10;99.90;;;;;;5113723;28;19934;-82
2023/12/11 02:02:02;;;;;;;;;;;9.10;99.90;;;;;;5109749;27;20004;-83
2023/12/11 02:04:28;;;;;;;;;;;9.10;99.90;;;;;;5113070;27;19930;-86
2023/12/11 02:06:54;;;;;;;;;;;9.10;99.90;;;;;;5115015;27;19928;-85
2023/12/11 02:09:20;;;;;;;;;;;9.20;99.90;;;;;;5112245;27;20014;-84
2023/12/11 02:11:45;;;;;;;;;;;9.10;99.90;;;;;;5112805;27;19924;-82
2023/12/11 02:14:11;;;;;;;;;;;9.10;99.90;;;;;;5112738;27;19968;-85
2023/12/11 02:16:36;;;;;;;;;;;9.10;99.90;;;;;;5114035;28;20042;-82
2023/12/11 02:19:02;;;;;;;;;;;9.10;99.90;;;;;;5107977;27;19932;-82
2023/12/11 02:21:28;;;;;;;;;;;9.10;99.90;;;;;;5108355;27;20010;-85
2023/12/11 02:24:01;;;;;;;;;;;9.10;99.90;;;;;;5110132;27;19923;-82
2023/12/11 02:26:26;;;;;;;;;;;9.10;99.90;;;;;;5115747;27;19931;-83
2023/12/11 02:28:52;;;;;;;;;;;9.10;99.90;;;;;;5113357;27;20266;-83
2023/12/11 02:31:17;;;;;;;;;;;9.20;99.90;;;;;;5118081;27;20378;-84
2023/12/11 02:33:43;;;;;;;;;;;9.20;99.90;;;;;;5118588;27;19924;-83
2023/12/11 02:36:09;;;;;;;;;;;9.20;99.90;;;;;;5096266;28;20379;-90
2023/12/11 02:38:34;;;;;;;;;;;9.20;99.90;;;;;;5113341;27;19980;-83
2023/12/11 02:41:00;;;;;;;;;;;9.20;99.90;;;;;;5118036;27;19935;-80
2023/12/11 02:43:26;;;;;;;;;;;9.20;99.90;;;;;;5116234;27;19928;-81
2023/12/11 02:45:51;;;;;;;;;;;9.20;99.90;;;;;;5114957;27;19946;-82
2023/12/11 02:48:18;;;;;;;;;;;9.20;99.90;;;;;;5112540;27;19924;-84
2023/12/11 02:50:43;;;;;;;;;;;9.30;99.90;;;;;;5109489;27;19927;-83
2023/12/11 02:53:09;;;;;;;;;;;9.40;99.90;;;;;;5117040;27;20336;-82
2023/12/11 02:55:35;;;;;;;;;;;9.50;99.90;;;;;;5109157;27;20006;-83
2023/12/11 02:58:01;;;;;;;;;;;9.50;99.90;;;;;;5103930;27;19932;-87
2023/12/11 03:00:27;;;;;;;;;;;9.50;99.90;;;;;;5113924;27;19966;-86
2023/12/11 03:02:53;;;;;;;;;;;9.60;99.90;;;;;;5112951;27;20289;-83
2023/12/11 03:05:19;;;;;;;;;;;9.60;99.90;;;;;;5115067;27;20050;-82
2023/12/11 03:07:44;;;;;;;;;;;9.60;99.90;;;;;;5115682;27;19924;-82
2023/12/11 03:10:10;;;;;;;;;;;9.50;99.90;;;;;;5109679;27;20425;-82
2023/12/11 03:12:36;;;;;;;;;;;9.50;99.90;;;;;;5105645;27;19924;-84
2023/12/11 03:15:02;;;;;;;;;;;9.50;99.90;;;;;;5116751;27;19924;-84
2023/12/11 03:17:28;;;;;;;;;;;9.50;99.90;;;;;;5110946;28;19931;-85
2023/12/11 03:19:53;;;;;;;;;;;9.50;99.90;;;;;;5109082;27;20472;-85
2023/12/11 03:22:19;;;;;;;;;;;9.40;99.90;;;;;;5119389;27;19980;-83
2023/12/11 03:24:46;;;;;;;;;;;9.50;99.90;;;;;;5114435;27;19978;-85
2023/12/11 03:27:11;;;;;;;;;;;9.40;99.90;;;;;;5119489;27;19927;-83
2023/12/11 03:29:37;;;;;;;;;;;9.30;99.90;;;;;;5111906;28;20395;-82
2023/12/11 03:32:03;;;;;;;;;;;9.40;99.90;;;;;;5107242;28;20377;-84
2023/12/11 03:34:28;;;;;;;;;;;9.30;99.90;;;;;;5121392;28;20435;-82
2023/12/11 03:36:54;;;;;;;;;;;9.30;99.90;;;;;;5120501;28;19930;-82
2023/12/11 03:39:19;;;;;;;;;;;9.30;99.90;;;;;;5122690;28;19949;-83
2023/12/11 03:41:45;;;;;;;;;;;9.30;99.90;;;;;;5113775;28;19971;-87
2023/12/11 03:44:11;;;;;;;;;;;9.30;99.90;;;;;;5136266;27;19927;-85
2023/12/11 03:46:36;;;;;;;;;;;9.30;99.90;;;;;;5106543;28;19928;-84
2023/12/11 03:49:02;;;;;;;;;;;9.30;99.90;;;;;;5111870;28;19969;-84
2023/12/11 03:51:27;;;;;;;;;;;9.30;99.90;;;;;;5107193;27;19989;-83
2023/12/11 03:53:53;;;;;;;;;;;9.30;99.90;;;;;;5107862;28;20051;-84
2023/12/11 03:56:19;;;;;;;;;;;9.30;99.90;;;;;;5112603;28;19928;-83
2023/12/11 03:58:44;;;;;;;;;;;9.30;99.90;;;;;;5111574;28;19958;-82
2023/12/11 04:01:10;;;;;;;;;;;9.30;99.90;;;;;;5109557;28;20286;-82
2023/12/11 04:03:36;;;;;;;;;;;9.30;99.90;;;;;;5107132;28;20015;-83
2023/12/11 04:06:02;;;;;;;;;;;9.30;99.90;;;;;;5106346;27;19972;-84
2023/12/11 04:08:27;;;;;;;;;;;9.30;99.90;;;;;;5107081;27;20316;-83
2023/12/11 04:10:53;;;;;;;;;;;9.30;99.90;;;;;;5113866;27;19924;-86
2023/12/11 04:13:18;;;;;;;;;;;9.30;99.90;;;;;;5113231;27;20289;-82
2023/12/11 04:15:44;;;;;;;;;;;9.30;99.90;;;;;;5114975;27;19931;-88
2023/12/11 04:18:10;;;;;;;;;;;9.30;99.90;;;;;;5112950;27;19924;-82
2023/12/11 04:20:35;;;;;;;;;;;9.30;99.90;;;;;;5116309;27;20403;-82
2023/12/11 04:23:01;;;;;;;;;;;9.40;99.90;;;;;;5118640;27;19923;-82
2023/12/11 04:25:27;;;;;;;;;;;9.30;99.90;;;;;;5119266;27;19924;-82
2023/12/11 04:27:52;;;;;;;;;;;9.40;99.90;;;;;;5114941;27;19931;-86
2023/12/11 04:30:18;;;;;;;;;;;9.40;99.90;;;;;;5118601;27;20444;-83
2023/12/11 04:32:44;;;;;;;;;;;9.30;99.90;;;;;;5111154;27;19977;-83
2023/12/11 04:35:09;;;;;;;;;;;9.30;99.90;;;;;;5112795;27;20271;-83
2023/12/11 04:37:35;;;;;;;;;;;9.40;99.90;;;;;;5108763;27;20014;-82
2023/12/11 04:40:00;;;;;;;;;;;9.40;99.90;;;;;;5118481;27;20010;-84
2023/12/11 04:42:26;;;;;;;;;;;9.40;99.90;;;;;;5115159;27;19931;-82
2023/12/11 04:44:52;;;;;;;;;;;9.30;99.90;;;;;;5113666;27;19974;-82
2023/12/11 04:47:17;;;;;;;;;;;9.20;99.90;;;;;;5115595;27;19928;-83
2023/12/11 04:49:43;;;;;;;;;;;9.20;99.90;;;;;;5098584;27;21624;-81
2023/12/11 04:52:08;;;;;;;;;;;9.20;99.90;;;;;;5108942;27;20384;-83
2023/12/11 04:54:34;;;;;;;;;;;9.20;99.90;;;;;;5112312;27;20278;-83
2023/12/11 04:57:00;;;;;;;;;;;9.10;99.90;;;;;;5108839;27;20277;-84
2023/12/11 04:59:25;;;;;;;;;;;9.10;99.90;;;;;;5112451;27;19935;-81
2023/12/11 05:01:51;;;;;;;;;;;9.10;99.90;;;;;;5114273;27;20010;-85
2023/12/11 05:04:16;;;;;;;;;;;9.00;99.90;;;;;;5113453;27;19924;-84
2023/12/11 05:06:43;;;;;;;;;;;9.00;99.90;;;;;;5118259;27;19930;-89
2023/12/11 05:09:09;;;;;;;;;;;8.90;99.90;;;;;;5113597;27;20018;-82
2023/12/11 05:11:35;;;;;;;;;;;8.90;99.90;;;;;;5111324;27;20033;-82
2023/12/11 05:14:03;;;;;;;;;;;9.00;99.90;;;;;;5109973;27;19931;-84
2023/12/11 05:16:29;;;;;;;;;;;9.00;99.90;;;;;;5116150;28;19928;-82
2023/12/11 05:18:54;;;;;;;;;;;9.00;99.90;;;;;;5114837;28;20443;-82
2023/12/11 05:21:20;;;;;;;;;;;9.00;99.90;;;;;;5109638;28;19931;-83
2023/12/11 05:23:45;;;;;;;;;;;9.10;99.90;;;;;;5109884;28;19955;-85
2023/12/11 05:26:17;;;;;;;;;;;9.20;99.90;;;;;;5114513;28;19927;-84
2023/12/11 05:28:43;;;;;;;;;;;9.20;99.90;;;;;;5115952;28;19975;-83
2023/12/11 05:31:08;;;;;;;;;;;9.20;99.90;;;;;;5083152;28;19974;-83
2023/12/11 05:33:34;;;;;;;;;;;9.20;99.90;;;;;;5105129;28;20322;-83
2023/12/11 05:36:00;;;;;;;;;;;9.20;99.90;;;;;;5112776;27;19942;-82
2023/12/11 05:38:25;;;;;;;;;;;9.20;99.90;;;;;;5111489;27;20475;-83
2023/12/11 05:40:51;;;;;;;;;;;9.10;99.90;;;;;;5105782;27;19924;-84
2023/12/11 05:43:16;;;;;;;;;;;9.10;99.90;;;;;;5138575;27;20298;-84
2023/12/11 05:45:42;;;;;;;;;;;9.10;99.90;;;;;;5112629;27;19924;-89
2023/12/11 05:48:07;;;;;;;;;;;9.10;99.90;;;;;;5097161;28;20328;-83
2023/12/11 05:50:33;;;;;;;;;;;9.10;99.90;;;;;;5115805;27;19924;-82
2023/12/11 05:52:58;;;;;;;;;;;9.10;99.90;;;;;;5115771;27;20361;-83
2023/12/11 05:55:24;;;;;;;;;;;9.00;99.90;;;;;;5110372;27;19931;-84
2023/12/11 05:57:50;;;;;;;;;;;9.00;99.90;;;;;;5106672;27;20392;-82
2023/12/11 06:00:15;;;;;;;;;;;9.10;99.90;;;;;;5113746;27;19973;-82
2023/12/11 06:02:41;;;;;;;;;;;9.10;99.90;;;;;;5112031;27;19923;-83
2023/12/11 06:05:08;;;;;;;;;;;9.10;99.90;;;;;;5108974;27;19923;-84
2023/12/11 06:07:34;;;;;;;;;;;9.10;99.90;;;;;;5110949;27;19932;-82
2023/12/11 06:10:00;;;;;;;;;;;9.10;99.90;;;;;;5112035;27;19967;-82
2023/12/11 06:12:25;;;;;;;;;;;9.10;99.90;;;;;;5108453;27;19992;-83
2023/12/11 06:14:51;;;;;;;;;;;9.20;99.90;;;;;;5108614;27;19928;-82
2023/12/11 06:17:16;;;;;;;;;;;9.20;99.90;;;;;;5111479;27;19935;-84
2023/12/11 06:19:42;;;;;;;;;;;9.20;99.90;;;;;;5132388;27;19924;-84
2023/12/11 06:22:08;;;;;;;;;;;9.20;99.90;;;;;;5106614;27;19928;-83
2023/12/11 06:24:33;;;;;;;;;;;9.20;99.90;;;;;;5109862;27;19924;-82
2023/12/11 06:26:59;;;;;;;;;;;9.20;99.90;;;;;;5111729;27;19928;-81
2023/12/11 06:29:24;;;;;;;;;;;9.20;99.90;;;;;;5105916;27;19928;-83
2023/12/11 06:31:50;;;;;;;;;;;9.30;99.90;;;;;;5118238;27;19923;-86
2023/12/11 06:34:16;;;;;;;;;;;9.30;99.90;;;;;;5091509;27;19991;-83
2023/12/11 06:36:41;;;;;;;;;;;9.30;99.90;;;;;;5109098;27;19928;-83
2023/12/11 06:39:07;;;;;;;;;;;9.30;99.90;;;;;;5108539;27;19923;-85
2023/12/11 06:41:34;;;;;;;;;;;9.20;99.90;;;;;;5105159;27;19981;-84
2023/12/11 06:44:00;;;;;;;;;;;9.20;99.90;;;;;;5115843;27;19967;-82
2023/12/11 06:46:29;;;;;;;;;;;9.20;99.90;;;;;;5114648;27;19971;-82
2023/12/11 06:48:57;;;;;;;;;;;9.30;99.90;;;;;;5110084;27;19935;-85
2023/12/11 06:51:23;;;;;;;;;;;9.30;99.90;;;;;;5110645;27;19924;-83
2023/12/11 06:53:49;;;;;;;;;;;9.30;99.90;;;;;;5132142;27;19928;-82
2023/12/11 06:56:18;;;;;;;;;;;9.30;99.90;;;;;;5098762;27;20282;-84
2023/12/11 06:58:44;;;;;;;;;;;9.30;99.90;;;;;;5104973;27;19924;-82
2023/12/11 07:01:11;;;;;;;;;;;9.30;99.90;;;;;;5122684;27;19959;-88
2023/12/11 07:03:38;;;;;;;;;;;9.20;99.90;;;;;;5115189;27;20390;-86
2023/12/11 07:06:04;;;;;;;;;;;9.30;99.90;;;;;;5111288;27;19935;-87
2023/12/11 07:08:30;;;;;;;;;;;9.20;99.90;;;;;;5109091;27;19928;-86
2023/12/11 07:10:56;;;;;;;;;;;9.30;99.90;;;;;;5111309;27;19980;-83
2023/12/11 07:13:22;;;;;;;;;;;9.20;99.90;;;;;;5110317;27;19928;-86
2023/12/11 07:15:47;;;;;;;;;;;9.20;99.90;;;;;;5107833;27;19927;-84
2023/12/11 07:18:13;;;;;;;;;;;9.20;99.90;;;;;;5112020;28;19946;-82
2023/12/11 07:20:42;;;;;;;;;;;9.10;99.90;;;;;;5101046;28;19928;-84
2023/12/11 07:23:08;;;;;;;;;;;9.10;99.90;;;;;;5115142;27;19924;-83
2023/12/11 07:25:35;;;;;;;;;;;9.10;99.90;;;;;;5104981;28;19946;-83
2023/12/11 07:28:00;;;;;;;;;;;9.10;99.90;;;;;;5100775;28;19930;-84
2023/12/11 07:30:27;;;;;;;;;;;9.00;99.90;;;;;;5105696;28;19932;-82
2023/12/11 07:32:52;;;;;;;;;;;9.00;99.90;;;;;;5117115;28;19924;-84
2023/12/11 07:35:18;;;;;;;;;;;9.00;99.90;;;;;;5111246;28;19932;-87
2023/12/11 07:37:44;;;;;;;;;;;9.00;99.90;;;;;;5094047;28;19931;-83
2023/12/11 07:40:10;;;;;;;;;;;9.10;99.90;;;;;;5109234;28;20377;-83
2023/12/11 07:42:35;;;;;;;;;;;9.00;99.90;;;;;;5112472;27;20014;-82
2023/12/11 07:45:04;;;;;;;;;;;9.00;99.90;;;;;;5116592;27;20362;-82
2023/12/11 07:47:31;;;;;;;;;;;9.00;99.90;;;;;;5101847;28;20263;-86
2023/12/11 07:49:56;;;;;;;;;;;9.00;99.90;;;;;;5120933;27;19927;-83
2023/12/11 07:52:22;;;;;;;;;;;9.00;99.90;;;;;;5125136;27;19924;-84
2023/12/11 07:54:47;;;;;;;;;;;9.00;99.90;;;;;;5114954;27;19977;-88
2023/12/11 07:57:13;;;;;;;;;;;9.00;99.90;;;;;;5122810;27;19927;-84
2023/12/11 07:59:39;;;;;;;;;;;9.00;99.90;;;;;;5100064;27;20378;-84
2023/12/11 08:02:05;;;;;;;;;;;9.00;99.90;;;;;;5116600;27;19924;-85
2023/12/11 08:04:30;;;;;;;;;;;9.00;99.90;;;;;;5115118;27;20472;-84
2023/12/11 08:06:56;;;;;;;;;;;9.00;99.90;;;;;;5113295;27;19977;-87
2023/12/11 08:09:21;;;;;;;;;;;9.00;99.90;;;;;;5102583;28;20409;-84
2023/12/11 08:11:48;;;;;;;;;;;9.00;99.90;;;;;;5113646;27;19924;-85
2023/12/11 08:14:14;;;;;;;;;;;9.00;99.90;;;;;;5142697;27;19973;-83
2023/12/11 08:16:40;;;;;;;;;;;8.90;99.90;;;;;;5124778;27;19932;-86
2023/12/11 08:19:05;;;;;;;;;;;9.00;99.90;;;;;;5112181;27;19923;-83
2023/12/11 08:21:31;;;;;;;;;;;9.00;99.90;;;;;;5117535;27;19924;-89
2023/12/11 08:23:56;;;;;;;;;;;9.00;99.90;;;;;;5117491;27;20083;-84
2023/12/11 08:26:22;;;;;;;;;;;8.90;99.90;;;;;;5139297;27;19925;-86
2023/12/11 08:28:49;;;;;;;;;;;9.00;99.90;;;;;;5116424;27;20042;-84
2023/12/11 08:31:15;;;;;;;;;;;8.90;99.90;;;;;;5122150;27;19924;-83
2023/12/11 08:33:41;;;;;;;;;;;9.00;99.90;;;;;;5114828;27;20256;-85
2023/12/11 08:36:06;;;;;;;;;;;8.90;99.90;;;;;;5118464;27;19932;-87
2023/12/11 08:38:32;;;;;;;;;;;8.90;99.90;;;;;;5115392;27;19938;-87
2023/12/11 08:40:58;;;;;;;;;;;8.90;99.90;;;;;;5097746;27;19924;-84
2023/12/11 08:43:23;;;;;;;;;;;8.90;99.90;;;;;;5099287;27;20047;-84
2023/12/11 08:45:49;;;;;;;;;;;8.90;99.90;;;;;;5114703;27;20378;-85
2023/12/11 08:48:15;;;;;;;;;;;8.90;99.90;;;;;;5115158;27;19935;-83
2023/12/11 08:50:40;;;;;;;;;;;8.90;99.90;;;;;;5113682;27;20297;-84
2023/12/11 08:53:06;;;;;;;;;;;8.90;99.90;;;;;;5113810;27;19930;-85
2023/12/11 08:55:32;;;;;;;;;;;8.90;99.90;;;;;;5118862;27;19924;-84
2023/12/11 08:57:58;;;;;;;;;;;8.90;99.90;;;;;;5121534;27;19927;-85
2023/12/11 09:00:23;;;;;;;;;;;8.90;99.90;;;;;;5121019;27;19934;-84
2023/12/11 09:02:49;;;;;;;;;;;8.90;99.90;;;;;;5118155;27;19976;-85
2023/12/11 09:05:15;;;;;;;;;;;9.00;99.90;;;;;;5123509;27;19928;-84
2023/12/11 09:07:41;;;;;;;;;;;9.00;99.90;;;;;;5116823;27;19939;-83
2023/12/11 09:10:09;;;;;;;;;;;9.00;99.90;;;;;;5120058;27;20333;-83
2023/12/11 09:12:38;;;;;;;;;;;9.00;99.90;;;;;;5117930;27;19923;-84
2023/12/11 09:15:04;;;;;;;;;;;9.00;99.90;;;;;;5123163;27;19927;-84
2023/12/11 09:17:29;;;;;;;;;;;9.00;99.90;;;;;;5119150;27;19934;-85
2023/12/11 09:19:55;;;;;;;;;;;9.00;99.90;;;;;;5127161;27;19924;-84
2023/12/11 09:22:20;;;;;;;;;;;9.00;99.90;;;;;;5128363;27;19928;-85
2023/12/11 09:24:46;;;;;;;;;;;9.10;99.90;;;;;;5130699;27;21284;-84
2023/12/11 09:27:12;;;;;;;;;;;9.10;99.90;;;;;;5121203;27;20014;-85
2023/12/11 09:29:37;;;;;;;;;;;9.10;99.90;;;;;;5116781;27;19924;-84
2023/12/11 09:32:03;;;;;;;;;;;9.10;99.90;;;;;;5117237;27;19923;-84
2023/12/11 09:34:28;;;;;;;;;;;9.10;99.90;;;;;;5116169;27;19928;-85
2023/12/11 09:36:54;;;;;;;;;;;9.10;99.90;;;;;;5113826;27;19975;-85
2023/12/11 09:39:22;;;;;;;;;;;9.10;99.90;;;;;;5114786;27;19928;-84
2023/12/11 09:41:48;;;;;;;;;;;9.10;99.90;;;;;;5114901;27;19963;-83
2023/12/11 09:44:14;;;;;;;;;;;9.10;99.90;;;;;;5119106;27;20330;-82
2023/12/11 09:46:45;;;;;;;;;;;9.10;99.90;;;;;;5111650;27;19928;-84
2023/12/11 09:49:11;;;;;;;;;;;9.20;99.90;;;;;;5114600;27;19928;-83
2023/12/11 09:51:36;;;;;;;;;;;9.20;99.90;;;;;;5118871;27;20011;-83
2023/12/11 09:54:07;;;;;;;;;;;9.20;99.90;;;;;;5118041;27;20023;-84
2023/12/11 09:56:33;;;;;;;;;;;9.20;99.90;;;;;;5117497;27;19924;-84
2023/12/11 09:58:59;;;;;;;;;;;9.20;99.90;;;;;;5113198;27;20379;-85
2023/12/11 10:01:26;;;;;;;;;;;9.30;99.90;;;;;;5110856;27;19938;-84
2023/12/11 10:03:51;;;;;;;;;;;9.30;99.90;;;;;;5145740;27;19924;-84
2023/12/11 10:06:17;;;;;;;;;;;9.30;99.90;;;;;;5117338;27;20385;-84
2023/12/11 10:08:43;;;;;;;;;;;9.30;99.90;;;;;;5116978;27;19939;-83
2023/12/11 10:11:16;;;;;;;;;;;9.30;99.90;;;;;;5115564;27;20034;-84
2023/12/11 10:13:41;;;;;;;;;;;9.40;99.90;;;;;;5112778;27;19935;-85
2023/12/11 10:16:26;;;;;;;;;;;9.40;99.90;;;;;;5115078;27;19923;-84
2023/12/11 10:18:51;;;;;;;;;;;9.40;99.90;;;;;;5114790;27;19924;-84
2023/12/11 10:21:17;;;;;;;;;;;9.50;99.90;;;;;;5111055;27;19977;-83
2023/12/11 10:23:43;;;;;;;;;;;9.40;99.90;;;;;;5117330;27;19924;-84
2023/12/11 10:26:08;;;;;;;;;;;9.50;99.90;;;;;;5125250;27;19930;-84
2023/12/11 10:28:34;;;;;;;;;;;9.50;99.90;;;;;;5118648;27;20344;-85
2023/12/11 10:31:04;;;;;;;;;;;9.50;99.90;;;;;;5121053;27;20055;-86
2023/12/11 10:33:30;;;;;;;;;;;9.50;99.90;;;;;;5104702;27;20364;-84
2023/12/11 10:36:16;;;;;;;;;;;9.50;99.90;;;;;;5110342;27;19924;-85
2023/12/11 10:38:42;;;;;;;;;;;9.40;99.90;;;;;;5126584;27;19931;-86
2023/12/11 10:41:09;;;;;;;;;;;9.30;99.90;;;;;;5109364;28;20018;-85
2023/12/11 10:43:41;;;;;;;;;;;9.30;99.90;;;;;;5114584;27;19931;-84
2023/12/11 10:46:07;;;;;;;;;;;9.30;99.90;;;;;;5107169;27;19928;-85
2023/12/11 10:48:36;;;;;;;;;;;9.20;99.90;;;;;;5116450;27;19935;-84
2023/12/11 10:51:02;;;;;;;;;;;9.20;99.90;;;;;;5124680;27;19930;-83
2023/12/11 10:53:28;;;;;;;;;;;9.10;99.90;;;;;;5117715;27;20377;-85
2023/12/11 10:55:55;;;;;;;;;;;9.20;99.90;;;;;;5118322;27;20008;-85
2023/12/11 10:58:20;;;;;;;;;;;9.10;99.90;;;;;;5119004;27;19973;-85
2023/12/11 11:00:46;;;;;;;;;;;9.10;99.90;;;;;;5111122;27;19971;-85
2023/12/11 11:03:13;;;;;;;;;;;9.20;99.90;;;;;;5122878;27;20712;-83
2023/12/11 11:05:39;;;;;;;;;;;9.20;99.90;;;;;;5098719;28;20071;-84
2023/12/11 11:08:07;;;;;;;;;;;9.30;99.90;;;;;;5111192;28;19972;-84
2023/12/11 11:10:59;;;;;;;;;;;9.30;99.90;;;;;;5112810;27;19924;-85
2023/12/11 11:13:29;;;;;;;;;;;9.30;99.90;;;;;;5112689;27;20446;-83
2023/12/11 11:15:55;;;;;;;;;;;9.30;99.90;;;;;;5123701;27;19927;-85
2023/12/11 11:18:21;;;;;;;;;;;9.30;99.90;;;;;;5119031;27;19932;-83
2023/12/11 11:21:05;;;;;;;;;;;9.30;99.90;;;;;;5117483;27;19924;-84
2023/12/11 11:23:41;;;;;;;;;;;9.20;99.90;;;;;;5125243;27;19988;-83
2023/12/11 11:26:27;;;;;;;;;;;9.30;99.90;;;;;;5119369;27;19931;-86
2023/12/11 11:28:52;;;;;;;;;;;9.20;99.90;;;;;;5158551;27;19923;-86
2023/12/11 11:31:18;;;;;;;;;;;9.20;99.90;;;;;;5123302;27;19923;-86
2023/12/11 11:33:47;;;;;;;;;;;9.20;99.90;;;;;;5112352;28;19924;-84
2023/12/11 11:36:32;;;;;;;;;;;9.20;99.90;;;;;;5120206;28;19930;-84
2023/12/11 11:38:58;;;;;;;;;;;9.20;99.90;;;;;;5104243;28;19928;-84
2023/12/11 11:41:25;;;;;;;;;;;9.20;99.90;;;;;;5117916;28;20053;-84
2023/12/11 11:44:09;;;;;;;;;;;9.10;99.90;;;;;;5113026;28;19955;-84
2023/12/11 11:46:51;;;;;;;;;;;9.10;99.90;;;;;;5118114;28;20010;-85
2023/12/11 11:49:26;;;;;;;;;;;9.10;99.90;;;;;;5117565;28;19944;-86
2023/12/11 11:51:52;;;;;;;;;;;9.00;99.90;;;;;;5108315;28;19939;-83
2023/12/11 11:54:21;;;;;;;;;;;9.10;99.90;;;;;;5116185;28;19927;-84
2023/12/11 11:56:46;;;;;;;;;;;9.00;99.90;;;;;;5123044;28;19924;-83
2023/12/11 11:59:12;;;;;;;;;;;9.00;99.90;;;;;;5118257;27;19931;-84
2023/12/11 12:02:07;;;;;;;;;;;9.10;99.90;;;;;;5103897;28;19924;-85
2023/12/11 12:04:34;;;;;;;;;;;9.10;99.90;;;;;;5091224;28;20390;-85
2023/12/11 12:07:03;;;;;;;;;;;9.10;99.90;;;;;;5109608;28;20401;-84
2023/12/11 12:09:32;;;;;;;;;;;9.20;99.90;;;;;;5137865;27;20290;-85
2023/12/11 12:11:58;;;;;;;;;;;9.20;99.90;;;;;;5093054;28;20271;-84
2023/12/11 12:14:23;;;;;;;;;;;9.20;99.90;;;;;;5122769;28;19973;-85
2023/12/11 12:16:49;;;;;;;;;;;9.20;99.90;;;;;;5106650;28;19927;-84
2023/12/11 12:19:15;;;;;;;;;;;9.10;99.90;;;;;;5119319;28;19955;-85
2023/12/11 12:21:46;;;;;;;;;;;9.10;99.90;;;;;;5124328;28;20014;-84
2023/12/11 12:24:12;;;;;;;;;;;9.10;99.90;;;;;;5110559;28;19928;-84
2023/12/11 12:26:38;;;;;;;;;;;9.10;99.90;;;;;;5115747;27;19976;-84
2023/12/11 12:29:04;;;;;;;;;;;9.10;99.90;;;;;;5123454;27;19924;-85
2023/12/11 12:31:30;;;;;;;;;;;9.20;99.90;;;;;;5120648;27;19936;-84
2023/12/11 12:33:56;;;;;;;;;;;9.20;99.90;;;;;;5120029;27;20061;-83
2023/12/11 12:36:22;;;;;;;;;;;9.20;99.90;;;;;;5129270;27;20370;-82
2023/12/11 12:38:48;;;;;;;;;;;9.10;99.90;;;;;;5126024;27;20014;-82
2023/12/11 12:41:13;;;;;;;;;;;9.20;99.90;;;;;;5118976;27;20282;-82
2023/12/11 12:43:39;;;;;;;;;;;9.10;99.90;;;;;;5120849;27;20375;-85
2023/12/11 12:46:05;;;;;;;;;;;9.10;99.90;;;;;;5124036;27;19923;-82
2023/12/11 12:48:30;;;;;;;;;;;9.00;99.90;;;;;;5124008;27;19930;-81
2023/12/11 12:51:11;;;;;;;;;;;9.00;99.90;;;;;;5123717;27;19974;-82
2023/12/11 12:53:47;;;;;;;;;;;9.00;99.90;;;;;;5123953;27;19924;-82
2023/12/11 12:56:16;;;;;;;;;;;9.00;99.90;;;;;;5122290;27;19924;-82
2023/12/11 12:58:42;;;;;;;;;;;9.10;99.90;;;;;;5124691;27;20315;-80
2023/12/11 13:01:07;;;;;;;;;;;9.10;99.90;;;;;;5126122;27;20023;-83
2023/12/11 13:03:33;;;;;;;;;;;9.10;99.90;;;;;;5122686;27;19931;-83
2023/12/11 13:05:59;;;;;;;;;;;9.10;99.90;;;;;;5116971;27;19930;-84
2023/12/11 13:08:25;;;;;;;;;;;9.20;99.90;;;;;;5097182;27;20015;-87
2023/12/11 13:10:54;;;;;;;;;;;9.10;99.90;;;;;;5129227;27;19976;-86
2023/12/11 13:13:22;;;;;;;;;;;9.10;99.90;;;;;;5121764;27;19967;-85
2023/12/11 13:15:47;;;;;;;;;;;9.10;99.90;;;;;;5120797;27;20374;-85
2023/12/11 13:18:16;;;;;;;;;;;9.00;99.90;;;;;;5123042;27;19980;-84
2023/12/11 13:20:42;;;;;;;;;;;9.00;99.90;;;;;;5102729;27;20061;-84
2023/12/11 13:23:08;;;;;;;;;;;8.90;99.90;;;;;;5127801;27;20018;-86
2023/12/11 13:25:33;;;;;;;;;;;8.90;99.90;;;;;;5119631;27;19930;-84
2023/12/11 13:27:59;;;;;;;;;;;8.90;99.90;;;;;;5124142;27;19939;-87
2023/12/11 13:30:25;;;;;;;;;;;9.00;99.90;;;;;;5126573;27;20370;-83
2023/12/11 13:32:51;;;;;;;;;;;8.90;99.90;;;;;;5105549;27;19924;-82
2023/12/11 13:35:17;;;;;;;;;;;8.90;99.90;;;;;;5123636;27;19924;-83
2023/12/11 13:37:43;;;;;;;;;;;8.90;99.90;;;;;;5122001;27;20290;-84
2023/12/11 13:40:10;;;;;;;;;;;8.80;99.90;;;;;;5122897;27;20374;-87
2023/12/11 13:42:36;;;;;;;;;;;8.80;99.90;;;;;;5118688;27;19934;-83
2023/12/11 13:45:02;;;;;;;;;;;8.80;99.90;;;;;;5143497;27;19924;-83
2023/12/11 13:47:28;;;;;;;;;;;8.90;99.90;;;;;;5111263;27;20024;-84
2023/12/11 13:49:54;;;;;;;;;;;8.90;99.90;;;;;;5120522;28;19931;-84
2023/12/11 13:52:19;;;;;;;;;;;8.90;99.90;;;;;;5122438;27;19928;-83
2023/12/11 13:54:45;;;;;;;;;;;8.80;99.90;;;;;;5123326;27;19930;-82
2023/12/11 13:57:10;;;;;;;;;;;8.80;99.90;;;;;;5104185;28;19973;-83
2023/12/11 13:59:36;;;;;;;;;;;8.80;99.90;;;;;;5113619;28;20367;-82
2023/12/11 14:02:01;;;;;;;;;;;8.80;99.90;;;;;;5114609;28;19924;-85
2023/12/11 14:04:30;;;;;;;;;;;8.70;99.90;;;;;;5115765;27;19987;-83
2023/12/11 14:06:55;;;;;;;;;;;8.70;99.90;;;;;;5116472;27;19931;-84
2023/12/11 14:09:21;;;;;;;;;;;8.70;99.90;;;;;;5110500;27;19932;-85
2023/12/11 14:11:47;;;;;;;;;;;8.70;99.90;;;;;;5109498;27;19931;-82
2023/12/11 14:14:12;;;;;;;;;;;8.80;99.90;;;;;;5114340;27;19931;-83
2023/12/11 14:16:38;;;;;;;;;;;8.80;99.90;;;;;;5121371;27;20449;-83
2023/12/11 14:19:04;;;;;;;;;;;8.70;99.90;;;;;;5126084;27;20009;-85
2023/12/11 14:21:30;;;;;;;;;;;8.60;99.90;;;;;;5119488;27;19927;-82
2023/12/11 14:23:56;;;;;;;;;;;8.60;99.90;;;;;;5123470;27;20471;-83
2023/12/11 14:26:21;;;;;;;;;;;8.50;99.90;;;;;;5122376;27;20301;-82